sensor_id;sensor_type;location;lat;lon;timestamp;P1;durP1;ratioP1;P2;durP2;ratioP2
52898;SDS011;38763;53.096;6.062;2023-03-01T00:02:03;36.97;;;21.27;;
52898;SDS011;38763;53.096;6.062;2023-03-01T00:04:30;38.45;;;22.00;;
52898;SDS011;38763;53.096;6.062;2023-03-01T00:06:55;38.33;;;22.25;;
52898;SDS011;38763;53.096;6.062;2023-03-01T00:09:22;38.17;;;22.17;;
52898;SDS011;38763;53.096;6.062;2023-03-01T00:11:47;36.60;;;22.15;;
52898;SDS011;38763;53.096;6.062;2023-03-01T00:14:13;37.75;;;21.67;;
52898;SDS011;38763;53.096;6.062;2023-03-01T00:16:41;43.08;;;23.50;;
52898;SDS011;38763;53.096;6.062;2023-03-01T00:19:12;37.03;;;22.25;;
52898;SDS011;38763;53.096;6.062;2023-03-01T00:21:39;35.47;;;21.45;;
52898;SDS011;38763;53.096;6.062;2023-03-01T00:24:05;38.90;;;21.95;;
52898;SDS011;38763;53.096;6.062;2023-03-01T00:26:31;34.90;;;21.88;;
52898;SDS011;38763;53.096;6.062;2023-03-01T00:28:57;39.45;;;23.55;;
52898;SDS011;38763;53.096;6.062;2023-03-01T00:31:25;37.80;;;21.95;;
52898;SDS011;38763;53.096;6.062;2023-03-01T00:33:56;37.75;;;21.00;;
52898;SDS011;38763;53.096;6.062;2023-03-01T00:36:27;39.63;;;22.13;;
52898;SDS011;38763;53.096;6.062;2023-03-01T00:38:54;39.50;;;23.30;;
52898;SDS011;38763;53.096;6.062;2023-03-01T00:41:20;41.80;;;24.90;;
52898;SDS011;38763;53.096;6.062;2023-03-01T00:43:47;39.80;;;23.20;;
52898;SDS011;38763;53.096;6.062;2023-03-01T00:46:15;43.05;;;25.50;;
52898;SDS011;38763;53.096;6.062;2023-03-01T00:48:42;44.88;;;26.13;;
52898;SDS011;38763;53.096;6.062;2023-03-01T00:51:10;45.95;;;25.90;;
52898;SDS011;38763;53.096;6.062;2023-03-01T00:53:38;46.05;;;25.08;;
52898;SDS011;38763;53.096;6.062;2023-03-01T00:56:05;38.00;;;23.15;;
52898;SDS011;38763;53.096;6.062;2023-03-01T00:58:32;40.05;;;23.13;;
52898;SDS011;38763;53.096;6.062;2023-03-01T01:00:58;39.47;;;23.65;;
52898;SDS011;38763;53.096;6.062;2023-03-01T01:03:25;43.22;;;24.27;;
52898;SDS011;38763;53.096;6.062;2023-03-01T01:05:51;39.08;;;23.65;;
52898;SDS011;38763;53.096;6.062;2023-03-01T01:08:18;42.78;;;24.33;;
52898;SDS011;38763;53.096;6.062;2023-03-01T01:10:47;43.92;;;25.10;;
52898;SDS011;38763;53.096;6.062;2023-03-01T01:13:13;56.47;;;29.40;;
52898;SDS011;38763;53.096;6.062;2023-03-01T01:15:39;53.30;;;27.65;;
52898;SDS011;38763;53.096;6.062;2023-03-01T01:18:05;51.70;;;26.40;;
52898;SDS011;38763;53.096;6.062;2023-03-01T01:20:32;49.53;;;25.92;;
52898;SDS011;38763;53.096;6.062;2023-03-01T01:22:59;50.00;;;26.92;;
52898;SDS011;38763;53.096;6.062;2023-03-01T01:25:25;49.83;;;27.05;;
52898;SDS011;38763;53.096;6.062;2023-03-01T01:27:51;48.88;;;26.70;;
52898;SDS011;38763;53.096;6.062;2023-03-01T01:30:17;46.65;;;25.58;;
52898;SDS011;38763;53.096;6.062;2023-03-01T01:32:42;39.97;;;23.65;;
52898;SDS011;38763;53.096;6.062;2023-03-01T01:35:08;43.03;;;24.48;;
52898;SDS011;38763;53.096;6.062;2023-03-01T01:37:34;44.85;;;25.95;;
52898;SDS011;38763;53.096;6.062;2023-03-01T01:40:00;57.90;;;26.20;;
52898;SDS011;38763;53.096;6.062;2023-03-01T01:42:29;59.63;;;27.08;;
52898;SDS011;38763;53.096;6.062;2023-03-01T01:47:52;131.43;;;31.80;;
52898;SDS011;38763;53.096;6.062;2023-03-01T01:50:20;98.55;;;31.95;;
52898;SDS011;38763;53.096;6.062;2023-03-01T01:52:46;62.05;;;29.33;;
52898;SDS011;38763;53.096;6.062;2023-03-01T01:55:15;64.65;;;27.00;;
52898;SDS011;38763;53.096;6.062;2023-03-01T01:57:47;62.63;;;24.00;;
52898;SDS011;38763;53.096;6.062;2023-03-01T02:00:18;119.13;;;25.50;;
52898;SDS011;38763;53.096;6.062;2023-03-01T02:02:46;164.38;;;27.50;;
52898;SDS011;38763;53.096;6.062;2023-03-01T02:05:29;186.98;;;26.63;;
52898;SDS011;38763;53.096;6.062;2023-03-01T02:07:58;298.08;;;31.08;;
52898;SDS011;38763;53.096;6.062;2023-03-01T02:10:24;262.65;;;29.15;;
52898;SDS011;38763;53.096;6.062;2023-03-01T02:12:50;233.85;;;28.63;;
52898;SDS011;38763;53.096;6.062;2023-03-01T02:15:17;155.25;;;25.75;;
52898;SDS011;38763;53.096;6.062;2023-03-01T02:17:43;70.20;;;22.23;;
52898;SDS011;38763;53.096;6.062;2023-03-01T02:22:53;64.68;;;22.38;;
52898;SDS011;38763;53.096;6.062;2023-03-01T02:28:23;40.97;;;20.52;;
52898;SDS011;38763;53.096;6.062;2023-03-01T02:30:55;35.95;;;19.50;;
52898;SDS011;38763;53.096;6.062;2023-03-01T02:33:40;35.42;;;19.85;;
52898;SDS011;38763;53.096;6.062;2023-03-01T02:36:14;31.83;;;19.08;;
52898;SDS011;38763;53.096;6.062;2023-03-01T02:38:42;31.00;;;18.13;;
52898;SDS011;38763;53.096;6.062;2023-03-01T02:41:09;31.25;;;16.85;;
52898;SDS011;38763;53.096;6.062;2023-03-01T02:43:38;31.17;;;17.55;;
52898;SDS011;38763;53.096;6.062;2023-03-01T02:46:05;28.90;;;17.25;;
52898;SDS011;38763;53.096;6.062;2023-03-01T02:48:46;69.97;;;20.20;;
52898;SDS011;38763;53.096;6.062;2023-03-01T02:57:04;39.78;;;20.13;;
52898;SDS011;38763;53.096;6.062;2023-03-01T02:59:31;62.75;;;23.60;;
52898;SDS011;38763;53.096;6.062;2023-03-01T03:02:04;244.75;;;29.60;;
52898;SDS011;38763;53.096;6.062;2023-03-01T03:04:30;186.50;;;27.98;;
52898;SDS011;38763;53.096;6.062;2023-03-01T03:06:56;175.75;;;28.20;;
52898;SDS011;38763;53.096;6.062;2023-03-01T03:09:21;173.65;;;25.75;;
52898;SDS011;38763;53.096;6.062;2023-03-01T03:11:47;110.63;;;28.73;;
52898;SDS011;38763;53.096;6.062;2023-03-01T03:14:13;54.10;;;24.70;;
52898;SDS011;38763;53.096;6.062;2023-03-01T03:16:42;53.88;;;23.70;;
52898;SDS011;38763;53.096;6.062;2023-03-01T03:19:09;99.68;;;25.08;;
52898;SDS011;38763;53.096;6.062;2023-03-01T03:21:34;89.70;;;25.60;;
52898;SDS011;38763;53.096;6.062;2023-03-01T03:24:00;79.53;;;26.13;;
52898;SDS011;38763;53.096;6.062;2023-03-01T03:26:26;63.13;;;23.60;;
52898;SDS011;38763;53.096;6.062;2023-03-01T03:28:52;32.88;;;18.88;;
52898;SDS011;38763;53.096;6.062;2023-03-01T03:31:17;30.10;;;17.50;;
52898;SDS011;38763;53.096;6.062;2023-03-01T03:33:43;113.00;;;23.25;;
52898;SDS011;38763;53.096;6.062;2023-03-01T03:36:09;110.30;;;21.92;;
52898;SDS011;38763;53.096;6.062;2023-03-01T03:38:39;115.30;;;23.35;;
52898;SDS011;38763;53.096;6.062;2023-03-01T03:41:06;172.40;;;24.60;;
52898;SDS011;38763;53.096;6.062;2023-03-01T03:43:33;352.40;;;31.63;;
52898;SDS011;38763;53.096;6.062;2023-03-01T03:46:00;183.80;;;26.77;;
52898;SDS011;38763;53.096;6.062;2023-03-01T03:48:31;90.78;;;22.00;;
52898;SDS011;38763;53.096;6.062;2023-03-01T03:50:58;291.52;;;25.48;;
52898;SDS011;38763;53.096;6.062;2023-03-01T03:53:24;128.23;;;21.15;;
52898;SDS011;38763;53.096;6.062;2023-03-01T03:55:51;260.08;;;27.83;;
52898;SDS011;38763;53.096;6.062;2023-03-01T03:58:18;397.10;;;31.05;;
52898;SDS011;38763;53.096;6.062;2023-03-01T04:00:46;346.15;;;32.85;;
52898;SDS011;38763;53.096;6.062;2023-03-01T04:03:15;337.98;;;29.98;;
52898;SDS011;38763;53.096;6.062;2023-03-01T04:05:42;351.60;;;32.13;;
52898;SDS011;38763;53.096;6.062;2023-03-01T04:08:08;222.48;;;25.63;;
52898;SDS011;38763;53.096;6.062;2023-03-01T04:10:35;190.82;;;24.95;;
52898;SDS011;38763;53.096;6.062;2023-03-01T04:13:06;180.02;;;20.90;;
52898;SDS011;38763;53.096;6.062;2023-03-01T04:15:34;62.20;;;17.20;;
52898;SDS011;38763;53.096;6.062;2023-03-01T04:18:00;124.20;;;22.70;;
52898;SDS011;38763;53.096;6.062;2023-03-01T04:20:27;109.07;;;21.58;;
52898;SDS011;38763;53.096;6.062;2023-03-01T04:23:04;100.25;;;19.50;;
52898;SDS011;38763;53.096;6.062;2023-03-01T04:26:18;137.05;;;24.98;;
52898;SDS011;38763;53.096;6.062;2023-03-01T04:28:25;57.42;;;18.48;;
52898;SDS011;38763;53.096;6.062;2023-03-01T04:30:53;45.38;;;19.77;;
52898;SDS011;38763;53.096;6.062;2023-03-01T04:33:20;33.97;;;17.58;;
52898;SDS011;38763;53.096;6.062;2023-03-01T04:35:48;32.33;;;17.60;;
52898;SDS011;38763;53.096;6.062;2023-03-01T04:38:14;28.02;;;18.13;;
52898;SDS011;38763;53.096;6.062;2023-03-01T04:40:44;26.20;;;16.52;;
52898;SDS011;38763;53.096;6.062;2023-03-01T04:43:11;26.10;;;16.83;;
52898;SDS011;38763;53.096;6.062;2023-03-01T04:45:40;28.30;;;17.92;;
52898;SDS011;38763;53.096;6.062;2023-03-01T04:48:06;29.20;;;18.70;;
52898;SDS011;38763;53.096;6.062;2023-03-01T04:50:32;29.67;;;18.30;;
52898;SDS011;38763;53.096;6.062;2023-03-01T04:52:58;29.63;;;17.98;;
52898;SDS011;38763;53.096;6.062;2023-03-01T04:55:24;42.38;;;22.50;;
52898;SDS011;38763;53.096;6.062;2023-03-01T04:57:52;58.65;;;24.33;;
52898;SDS011;38763;53.096;6.062;2023-03-01T05:00:18;57.30;;;26.38;;
52898;SDS011;38763;53.096;6.062;2023-03-01T05:02:48;58.40;;;27.65;;
52898;SDS011;38763;53.096;6.062;2023-03-01T05:05:22;52.28;;;26.55;;
52898;SDS011;38763;53.096;6.062;2023-03-01T05:08:09;64.20;;;26.60;;
52898;SDS011;38763;53.096;6.062;2023-03-01T05:13:08;67.32;;;28.38;;
52898;SDS011;38763;53.096;6.062;2023-03-01T05:15:34;59.00;;;28.55;;
52898;SDS011;38763;53.096;6.062;2023-03-01T05:18:01;47.97;;;26.13;;
52898;SDS011;38763;53.096;6.062;2023-03-01T05:20:28;48.10;;;25.50;;
52898;SDS011;38763;53.096;6.062;2023-03-01T05:22:56;47.80;;;25.83;;
52898;SDS011;38763;53.096;6.062;2023-03-01T05:25:23;47.45;;;25.20;;
52898;SDS011;38763;53.096;6.062;2023-03-01T05:27:49;46.53;;;24.85;;
52898;SDS011;38763;53.096;6.062;2023-03-01T05:30:15;45.70;;;24.42;;
52898;SDS011;38763;53.096;6.062;2023-03-01T05:32:46;47.20;;;25.80;;
52898;SDS011;38763;53.096;6.062;2023-03-01T05:35:14;42.67;;;23.58;;
52898;SDS011;38763;53.096;6.062;2023-03-01T05:37:45;43.47;;;23.80;;
52898;SDS011;38763;53.096;6.062;2023-03-01T05:40:13;42.30;;;22.48;;
52898;SDS011;38763;53.096;6.062;2023-03-01T05:42:47;38.83;;;22.75;;
52898;SDS011;38763;53.096;6.062;2023-03-01T05:45:15;40.72;;;22.10;;
52898;SDS011;38763;53.096;6.062;2023-03-01T05:47:42;38.83;;;21.98;;
52898;SDS011;38763;53.096;6.062;2023-03-01T05:50:12;35.13;;;20.83;;
52898;SDS011;38763;53.096;6.062;2023-03-01T05:52:43;32.75;;;19.90;;
52898;SDS011;38763;53.096;6.062;2023-03-01T05:55:31;35.70;;;21.15;;
52898;SDS011;38763;53.096;6.062;2023-03-01T05:58:00;36.38;;;21.83;;
52898;SDS011;38763;53.096;6.062;2023-03-01T06:00:28;37.38;;;21.30;;
52898;SDS011;38763;53.096;6.062;2023-03-01T06:02:55;39.75;;;21.85;;
52898;SDS011;38763;53.096;6.062;2023-03-01T06:05:22;39.15;;;22.05;;
52898;SDS011;38763;53.096;6.062;2023-03-01T06:07:48;36.13;;;21.15;;
52898;SDS011;38763;53.096;6.062;2023-03-01T06:10:15;34.53;;;19.90;;
52898;SDS011;38763;53.096;6.062;2023-03-01T06:12:42;35.10;;;19.70;;
52898;SDS011;38763;53.096;6.062;2023-03-01T06:15:09;33.70;;;20.08;;
52898;SDS011;38763;53.096;6.062;2023-03-01T06:17:36;32.53;;;18.90;;
52898;SDS011;38763;53.096;6.062;2023-03-01T06:20:08;32.10;;;19.00;;
52898;SDS011;38763;53.096;6.062;2023-03-01T06:22:39;31.88;;;18.90;;
52898;SDS011;38763;53.096;6.062;2023-03-01T06:25:06;35.35;;;20.48;;
52898;SDS011;38763;53.096;6.062;2023-03-01T06:27:32;34.47;;;20.30;;
52898;SDS011;38763;53.096;6.062;2023-03-01T06:29:58;37.92;;;20.60;;
52898;SDS011;38763;53.096;6.062;2023-03-01T06:32:24;32.65;;;18.63;;
52898;SDS011;38763;53.096;6.062;2023-03-01T06:34:49;31.80;;;19.30;;
52898;SDS011;38763;53.096;6.062;2023-03-01T06:37:15;32.15;;;19.45;;
52898;SDS011;38763;53.096;6.062;2023-03-01T06:39:41;52.20;;;21.75;;
52898;SDS011;38763;53.096;6.062;2023-03-01T06:42:07;37.90;;;20.33;;
52898;SDS011;38763;53.096;6.062;2023-03-01T06:44:35;37.55;;;21.50;;
52898;SDS011;38763;53.096;6.062;2023-03-01T06:47:01;41.65;;;21.02;;
52898;SDS011;38763;53.096;6.062;2023-03-01T06:49:28;36.58;;;20.75;;
52898;SDS011;38763;53.096;6.062;2023-03-01T06:51:54;36.42;;;20.25;;
52898;SDS011;38763;53.096;6.062;2023-03-01T06:54:19;37.40;;;20.95;;
52898;SDS011;38763;53.096;6.062;2023-03-01T06:56:47;35.72;;;20.58;;
52898;SDS011;38763;53.096;6.062;2023-03-01T06:59:14;34.65;;;20.38;;
52898;SDS011;38763;53.096;6.062;2023-03-01T07:01:40;33.42;;;19.05;;
52898;SDS011;38763;53.096;6.062;2023-03-01T07:04:06;31.58;;;19.48;;
52898;SDS011;38763;53.096;6.062;2023-03-01T07:06:31;34.88;;;21.40;;
52898;SDS011;38763;53.096;6.062;2023-03-01T07:08:57;33.20;;;20.73;;
52898;SDS011;38763;53.096;6.062;2023-03-01T07:11:23;33.88;;;19.63;;
52898;SDS011;38763;53.096;6.062;2023-03-01T07:13:48;30.35;;;19.10;;
52898;SDS011;38763;53.096;6.062;2023-03-01T07:16:14;30.42;;;19.30;;
52898;SDS011;38763;53.096;6.062;2023-03-01T07:18:40;32.63;;;18.77;;
52898;SDS011;38763;53.096;6.062;2023-03-01T07:21:08;30.00;;;18.75;;
52898;SDS011;38763;53.096;6.062;2023-03-01T07:23:35;33.13;;;20.40;;
52898;SDS011;38763;53.096;6.062;2023-03-01T07:26:01;32.35;;;19.30;;
52898;SDS011;38763;53.096;6.062;2023-03-01T07:28:27;31.25;;;19.98;;
52898;SDS011;38763;53.096;6.062;2023-03-01T07:30:53;30.60;;;18.90;;
52898;SDS011;38763;53.096;6.062;2023-03-01T07:33:19;31.70;;;19.55;;
52898;SDS011;38763;53.096;6.062;2023-03-01T07:35:45;31.25;;;19.08;;
52898;SDS011;38763;53.096;6.062;2023-03-01T07:38:10;32.63;;;19.45;;
52898;SDS011;38763;53.096;6.062;2023-03-01T07:40:36;33.63;;;20.85;;
52898;SDS011;38763;53.096;6.062;2023-03-01T07:43:02;31.55;;;19.92;;
52898;SDS011;38763;53.096;6.062;2023-03-01T07:45:28;29.55;;;19.50;;
52898;SDS011;38763;53.096;6.062;2023-03-01T07:47:54;30.15;;;19.73;;
52898;SDS011;38763;53.096;6.062;2023-03-01T07:50:21;33.97;;;20.48;;
52898;SDS011;38763;53.096;6.062;2023-03-01T07:52:47;32.25;;;21.20;;
52898;SDS011;38763;53.096;6.062;2023-03-01T07:55:14;30.52;;;19.63;;
52898;SDS011;38763;53.096;6.062;2023-03-01T07:57:41;36.17;;;24.08;;
52898;SDS011;38763;53.096;6.062;2023-03-01T08:00:08;35.47;;;21.92;;
52898;SDS011;38763;53.096;6.062;2023-03-01T08:02:36;35.17;;;22.02;;
52898;SDS011;38763;53.096;6.062;2023-03-01T08:05:01;35.22;;;22.08;;
52898;SDS011;38763;53.096;6.062;2023-03-01T08:07:27;38.33;;;22.52;;
52898;SDS011;38763;53.096;6.062;2023-03-01T08:09:53;36.88;;;22.02;;
52898;SDS011;38763;53.096;6.062;2023-03-01T08:12:18;39.50;;;23.83;;
52898;SDS011;38763;53.096;6.062;2023-03-01T08:14:44;41.10;;;22.63;;
52898;SDS011;38763;53.096;6.062;2023-03-01T08:17:10;48.60;;;24.63;;
52898;SDS011;38763;53.096;6.062;2023-03-01T08:19:38;43.22;;;23.08;;
52898;SDS011;38763;53.096;6.062;2023-03-01T08:22:03;43.05;;;22.55;;
52898;SDS011;38763;53.096;6.062;2023-03-01T08:24:29;46.38;;;23.80;;
52898;SDS011;38763;53.096;6.062;2023-03-01T08:26:55;45.35;;;22.45;;
52898;SDS011;38763;53.096;6.062;2023-03-01T08:29:21;42.97;;;22.30;;
52898;SDS011;38763;53.096;6.062;2023-03-01T08:31:47;49.85;;;23.10;;
52898;SDS011;38763;53.096;6.062;2023-03-01T08:34:16;48.17;;;24.33;;
52898;SDS011;38763;53.096;6.062;2023-03-01T08:36:43;52.88;;;24.15;;
52898;SDS011;38763;53.096;6.062;2023-03-01T08:39:12;51.72;;;24.13;;
52898;SDS011;38763;53.096;6.062;2023-03-01T08:41:41;53.30;;;23.52;;
52898;SDS011;38763;53.096;6.062;2023-03-01T08:44:08;56.35;;;25.58;;
52898;SDS011;38763;53.096;6.062;2023-03-01T08:46:36;51.83;;;24.52;;
52898;SDS011;38763;53.096;6.062;2023-03-01T08:49:06;57.97;;;24.83;;
52898;SDS011;38763;53.096;6.062;2023-03-01T08:51:34;52.97;;;24.45;;
52898;SDS011;38763;53.096;6.062;2023-03-01T08:54:20;55.17;;;26.05;;
52898;SDS011;38763;53.096;6.062;2023-03-01T08:56:47;57.20;;;26.17;;
52898;SDS011;38763;53.096;6.062;2023-03-01T08:59:14;64.53;;;28.67;;
52898;SDS011;38763;53.096;6.062;2023-03-01T09:01:40;61.60;;;28.83;;
52898;SDS011;38763;53.096;6.062;2023-03-01T09:04:08;61.55;;;27.45;;
52898;SDS011;38763;53.096;6.062;2023-03-01T09:06:34;64.63;;;27.88;;
52898;SDS011;38763;53.096;6.062;2023-03-01T09:09:00;51.92;;;25.15;;
52898;SDS011;38763;53.096;6.062;2023-03-01T09:11:28;54.72;;;25.63;;
52898;SDS011;38763;53.096;6.062;2023-03-01T09:13:54;52.60;;;25.13;;
52898;SDS011;38763;53.096;6.062;2023-03-01T09:16:20;53.28;;;24.23;;
52898;SDS011;38763;53.096;6.062;2023-03-01T09:18:51;54.78;;;24.98;;
52898;SDS011;38763;53.096;6.062;2023-03-01T09:21:18;51.90;;;23.85;;
52898;SDS011;38763;53.096;6.062;2023-03-01T09:23:46;45.65;;;20.60;;
52898;SDS011;38763;53.096;6.062;2023-03-01T09:26:13;47.17;;;22.70;;
52898;SDS011;38763;53.096;6.062;2023-03-01T09:28:47;44.30;;;20.52;;
52898;SDS011;38763;53.096;6.062;2023-03-01T09:31:17;45.70;;;21.02;;
52898;SDS011;38763;53.096;6.062;2023-03-01T09:33:48;41.65;;;20.15;;
52898;SDS011;38763;53.096;6.062;2023-03-01T09:36:16;37.47;;;19.15;;
52898;SDS011;38763;53.096;6.062;2023-03-01T09:38:43;40.72;;;19.35;;
52898;SDS011;38763;53.096;6.062;2023-03-01T09:44:05;26.83;;;13.85;;
52898;SDS011;38763;53.096;6.062;2023-03-01T09:46:45;31.63;;;16.15;;
52898;SDS011;38763;53.096;6.062;2023-03-01T09:49:15;38.03;;;16.75;;
52898;SDS011;38763;53.096;6.062;2023-03-01T09:51:54;32.55;;;15.77;;
52898;SDS011;38763;53.096;6.062;2023-03-01T09:54:25;29.92;;;16.00;;
52898;SDS011;38763;53.096;6.062;2023-03-01T09:57:06;31.40;;;15.95;;
52898;SDS011;38763;53.096;6.062;2023-03-01T10:02:44;29.80;;;14.90;;
52898;SDS011;38763;53.096;6.062;2023-03-01T10:11:04;22.75;;;11.05;;
52898;SDS011;38763;53.096;6.062;2023-03-01T10:16:38;19.90;;;11.20;;
52898;SDS011;38763;53.096;6.062;2023-03-01T10:19:29;21.48;;;11.38;;
52898;SDS011;38763;53.096;6.062;2023-03-01T10:22:11;20.00;;;10.60;;
52898;SDS011;38763;53.096;6.062;2023-03-01T10:24:48;19.85;;;10.95;;
52898;SDS011;38763;53.096;6.062;2023-03-01T10:32:48;15.80;;;8.98;;
52898;SDS011;38763;53.096;6.062;2023-03-01T10:35:19;18.70;;;8.77;;
52898;SDS011;38763;53.096;6.062;2023-03-01T10:40:51;20.60;;;10.90;;
52898;SDS011;38763;53.096;6.062;2023-03-01T10:43:19;20.80;;;10.77;;
52898;SDS011;38763;53.096;6.062;2023-03-01T10:45:45;17.90;;;10.70;;
52898;SDS011;38763;53.096;6.062;2023-03-01T10:48:15;18.67;;;10.55;;
52898;SDS011;38763;53.096;6.062;2023-03-01T10:50:49;21.05;;;10.65;;
52898;SDS011;38763;53.096;6.062;2023-03-01T10:53:38;16.25;;;9.75;;
52898;SDS011;38763;53.096;6.062;2023-03-01T10:56:08;19.50;;;9.93;;
52898;SDS011;38763;53.096;6.062;2023-03-01T10:58:37;18.75;;;10.25;;
52898;SDS011;38763;53.096;6.062;2023-03-01T11:01:06;19.08;;;9.68;;
52898;SDS011;38763;53.096;6.062;2023-03-01T11:06:31;15.52;;;9.43;;
52898;SDS011;38763;53.096;6.062;2023-03-01T11:09:01;17.83;;;10.32;;
52898;SDS011;38763;53.096;6.062;2023-03-01T11:11:40;18.85;;;10.68;;
52898;SDS011;38763;53.096;6.062;2023-03-01T11:14:19;19.63;;;10.25;;
52898;SDS011;38763;53.096;6.062;2023-03-01T11:17:00;17.15;;;10.38;;
52898;SDS011;38763;53.096;6.062;2023-03-01T11:19:42;18.85;;;10.57;;
52898;SDS011;38763;53.096;6.062;2023-03-01T11:24:52;20.33;;;10.50;;
52898;SDS011;38763;53.096;6.062;2023-03-01T11:27:21;18.77;;;9.75;;
52898;SDS011;38763;53.096;6.062;2023-03-01T11:29:56;19.58;;;10.85;;
52898;SDS011;38763;53.096;6.062;2023-03-01T11:32:41;18.55;;;9.95;;
52898;SDS011;38763;53.096;6.062;2023-03-01T11:35:16;19.48;;;10.10;;
52898;SDS011;38763;53.096;6.062;2023-03-01T11:40:32;18.20;;;10.35;;
52898;SDS011;38763;53.096;6.062;2023-03-01T11:44:02;19.80;;;11.05;;
52898;SDS011;38763;53.096;6.062;2023-03-01T11:49:00;22.08;;;11.32;;
52898;SDS011;38763;53.096;6.062;2023-03-01T11:54:42;18.98;;;10.73;;
52898;SDS011;38763;53.096;6.062;2023-03-01T12:08:45;15.13;;;8.30;;
52898;SDS011;38763;53.096;6.062;2023-03-01T12:25:58;19.52;;;9.63;;
52898;SDS011;38763;53.096;6.062;2023-03-01T12:50:51;19.02;;;11.15;;
52898;SDS011;38763;53.096;6.062;2023-03-01T12:55:49;20.67;;;11.40;;
52898;SDS011;38763;53.096;6.062;2023-03-01T13:01:30;18.08;;;9.68;;
52898;SDS011;38763;53.096;6.062;2023-03-01T13:10:00;18.30;;;9.95;;
52898;SDS011;38763;53.096;6.062;2023-03-01T13:12:44;20.38;;;9.90;;
52898;SDS011;38763;53.096;6.062;2023-03-01T13:17:49;20.00;;;10.65;;
52898;SDS011;38763;53.096;6.062;2023-03-01T13:20:29;20.35;;;10.98;;
52898;SDS011;38763;53.096;6.062;2023-03-01T13:31:03;18.98;;;10.45;;
52898;SDS011;38763;53.096;6.062;2023-03-01T13:35:56;17.65;;;9.25;;
52898;SDS011;38763;53.096;6.062;2023-03-01T13:47:04;18.67;;;9.40;;
52898;SDS011;38763;53.096;6.062;2023-03-01T13:50:15;19.25;;;10.38;;
52898;SDS011;38763;53.096;6.062;2023-03-01T13:52:38;18.30;;;9.90;;
52898;SDS011;38763;53.096;6.062;2023-03-01T13:57:50;18.70;;;10.68;;
52898;SDS011;38763;53.096;6.062;2023-03-01T14:05:36;16.42;;;9.75;;
52898;SDS011;38763;53.096;6.062;2023-03-01T14:08:04;19.00;;;10.85;;
52898;SDS011;38763;53.096;6.062;2023-03-01T14:10:43;18.83;;;10.90;;
52898;SDS011;38763;53.096;6.062;2023-03-01T14:13:39;19.58;;;9.65;;
52898;SDS011;38763;53.096;6.062;2023-03-01T14:19:15;19.75;;;10.43;;
52898;SDS011;38763;53.096;6.062;2023-03-01T14:21:57;16.23;;;9.65;;
52898;SDS011;38763;53.096;6.062;2023-03-01T14:24:33;16.42;;;9.30;;
52898;SDS011;38763;53.096;6.062;2023-03-01T14:27:09;16.88;;;9.18;;
52898;SDS011;38763;53.096;6.062;2023-03-01T14:29:39;16.98;;;8.77;;
52898;SDS011;38763;53.096;6.062;2023-03-01T14:32:08;17.98;;;10.25;;
52898;SDS011;38763;53.096;6.062;2023-03-01T14:34:46;18.10;;;10.02;;
52898;SDS011;38763;53.096;6.062;2023-03-01T14:37:21;16.83;;;9.95;;
52898;SDS011;38763;53.096;6.062;2023-03-01T14:39:50;18.48;;;10.50;;
52898;SDS011;38763;53.096;6.062;2023-03-01T14:42:17;17.75;;;9.75;;
52898;SDS011;38763;53.096;6.062;2023-03-01T14:44:47;17.20;;;9.60;;
52898;SDS011;38763;53.096;6.062;2023-03-01T14:49:57;15.13;;;7.57;;
52898;SDS011;38763;53.096;6.062;2023-03-01T14:52:25;18.33;;;9.18;;
52898;SDS011;38763;53.096;6.062;2023-03-01T14:54:59;17.00;;;8.95;;
52898;SDS011;38763;53.096;6.062;2023-03-01T14:57:27;14.90;;;8.20;;
52898;SDS011;38763;53.096;6.062;2023-03-01T14:59:53;16.92;;;9.35;;
52898;SDS011;38763;53.096;6.062;2023-03-01T15:02:23;15.77;;;8.65;;
52898;SDS011;38763;53.096;6.062;2023-03-01T15:04:51;15.80;;;8.15;;
52898;SDS011;38763;53.096;6.062;2023-03-01T15:07:21;18.83;;;9.57;;
52898;SDS011;38763;53.096;6.062;2023-03-01T15:09:51;14.07;;;8.05;;
52898;SDS011;38763;53.096;6.062;2023-03-01T15:15:19;17.50;;;9.13;;
52898;SDS011;38763;53.096;6.062;2023-03-01T15:18:00;15.05;;;8.50;;
52898;SDS011;38763;53.096;6.062;2023-03-01T15:20:29;18.75;;;9.02;;
52898;SDS011;38763;53.096;6.062;2023-03-01T15:23:00;16.80;;;9.32;;
52898;SDS011;38763;53.096;6.062;2023-03-01T15:25:28;15.88;;;8.93;;
52898;SDS011;38763;53.096;6.062;2023-03-01T15:27:55;17.42;;;9.45;;
52898;SDS011;38763;53.096;6.062;2023-03-01T15:30:33;16.60;;;9.52;;
52898;SDS011;38763;53.096;6.062;2023-03-01T15:35:52;13.73;;;8.40;;
52898;SDS011;38763;53.096;6.062;2023-03-01T15:39:01;15.75;;;8.23;;
52898;SDS011;38763;53.096;6.062;2023-03-01T15:41:29;17.52;;;8.95;;
52898;SDS011;38763;53.096;6.062;2023-03-01T15:43:57;15.13;;;8.95;;
52898;SDS011;38763;53.096;6.062;2023-03-01T15:46:26;18.98;;;9.88;;
52898;SDS011;38763;53.096;6.062;2023-03-01T15:48:53;16.63;;;8.45;;
52898;SDS011;38763;53.096;6.062;2023-03-01T15:51:32;17.17;;;9.40;;
52898;SDS011;38763;53.096;6.062;2023-03-01T15:54:00;19.35;;;9.43;;
52898;SDS011;38763;53.096;6.062;2023-03-01T15:56:43;17.55;;;9.45;;
52898;SDS011;38763;53.096;6.062;2023-03-01T15:59:09;16.55;;;9.15;;
52898;SDS011;38763;53.096;6.062;2023-03-01T16:01:38;19.88;;;9.98;;
52898;SDS011;38763;53.096;6.062;2023-03-01T16:04:04;16.52;;;9.68;;
52898;SDS011;38763;53.096;6.062;2023-03-01T16:06:29;15.32;;;8.38;;
52898;SDS011;38763;53.096;6.062;2023-03-01T16:08:55;16.50;;;9.32;;
52898;SDS011;38763;53.096;6.062;2023-03-01T16:11:21;18.13;;;9.85;;
52898;SDS011;38763;53.096;6.062;2023-03-01T16:13:47;17.02;;;10.32;;
52898;SDS011;38763;53.096;6.062;2023-03-01T16:16:13;17.33;;;9.43;;
52898;SDS011;38763;53.096;6.062;2023-03-01T16:18:44;22.48;;;11.05;;
52898;SDS011;38763;53.096;6.062;2023-03-01T16:21:29;22.80;;;11.05;;
52898;SDS011;38763;53.096;6.062;2023-03-01T16:23:55;20.02;;;9.80;;
52898;SDS011;38763;53.096;6.062;2023-03-01T16:26:21;22.15;;;10.63;;
52898;SDS011;38763;53.096;6.062;2023-03-01T16:28:47;19.52;;;10.57;;
52898;SDS011;38763;53.096;6.062;2023-03-01T16:31:16;16.92;;;10.50;;
52898;SDS011;38763;53.096;6.062;2023-03-01T16:33:43;18.33;;;10.07;;
52898;SDS011;38763;53.096;6.062;2023-03-01T16:36:14;20.63;;;11.18;;
52898;SDS011;38763;53.096;6.062;2023-03-01T16:38:41;19.77;;;10.48;;
52898;SDS011;38763;53.096;6.062;2023-03-01T16:41:14;17.67;;;10.43;;
52898;SDS011;38763;53.096;6.062;2023-03-01T16:43:42;21.73;;;11.45;;
52898;SDS011;38763;53.096;6.062;2023-03-01T16:46:12;18.10;;;10.30;;
52898;SDS011;38763;53.096;6.062;2023-03-01T16:48:42;20.00;;;11.68;;
52898;SDS011;38763;53.096;6.062;2023-03-01T16:51:08;23.05;;;11.25;;
52898;SDS011;38763;53.096;6.062;2023-03-01T16:53:35;20.35;;;11.55;;
52898;SDS011;38763;53.096;6.062;2023-03-01T16:56:02;21.15;;;10.50;;
52898;SDS011;38763;53.096;6.062;2023-03-01T16:58:29;21.08;;;11.02;;
52898;SDS011;38763;53.096;6.062;2023-03-01T17:00:55;19.08;;;10.52;;
52898;SDS011;38763;53.096;6.062;2023-03-01T17:03:22;20.60;;;11.73;;
52898;SDS011;38763;53.096;6.062;2023-03-01T17:05:49;31.85;;;13.25;;
52898;SDS011;38763;53.096;6.062;2023-03-01T17:08:15;24.35;;;13.15;;
52898;SDS011;38763;53.096;6.062;2023-03-01T17:10:41;26.65;;;14.43;;
52898;SDS011;38763;53.096;6.062;2023-03-01T17:13:07;27.77;;;15.23;;